sensor_id;sensor_type;location;lat;lon;timestamp;P1;durP1;ratioP1;P2;durP2;ratioP2
17052;SDS011;8643;48.824;11.422;2022-07-29T00:00:50;8.27;;;2.97;;
17052;SDS011;8643;48.824;11.422;2022-07-29T00:03:18;7.00;;;3.13;;
17052;SDS011;8643;48.824;11.422;2022-07-29T00:05:47;5.63;;;3.20;;
17052;SDS011;8643;48.824;11.422;2022-07-29T00:08:15;7.50;;;3.53;;
17052;SDS011;8643;48.824;11.422;2022-07-29T00:10:43;4.97;;;3.58;;
17052;SDS011;8643;48.824;11.422;2022-07-29T00:13:12;9.05;;;3.72;;
17052;SDS011;8643;48.824;11.422;2022-07-29T00:15:41;7.72;;;3.80;;
17052;SDS011;8643;48.824;11.422;2022-07-29T00:18:11;4.28;;;3.85;;
17052;SDS011;8643;48.824;11.422;2022-07-29T00:20:39;5.90;;;3.70;;
17052;SDS011;8643;48.824;11.422;2022-07-29T00:23:07;6.82;;;4.00;;
17052;SDS011;8643;48.824;11.422;2022-07-29T00:25:39;6.72;;;4.05;;
17052;SDS011;8643;48.824;11.422;2022-07-29T00:28:07;5.32;;;3.88;;
17052;SDS011;8643;48.824;11.422;2022-07-29T00:30:36;5.68;;;3.80;;
17052;SDS011;8643;48.824;11.422;2022-07-29T00:33:05;4.72;;;4.00;;
17052;SDS011;8643;48.824;11.422;2022-07-29T00:35:35;6.03;;;4.10;;
17052;SDS011;8643;48.824;11.422;2022-07-29T00:38:13;4.53;;;3.90;;
17052;SDS011;8643;48.824;11.422;2022-07-29T00:40:44;4.68;;;3.85;;
17052;SDS011;8643;48.824;11.422;2022-07-29T00:43:14;6.63;;;4.20;;
17052;SDS011;8643;48.824;11.422;2022-07-29T00:45:44;4.63;;;3.90;;
17052;SDS011;8643;48.824;11.422;2022-07-29T00:48:13;5.30;;;4.00;;
17052;SDS011;8643;48.824;11.422;2022-07-29T00:50:43;5.68;;;3.80;;
17052;SDS011;8643;48.824;11.422;2022-07-29T00:53:11;4.45;;;3.75;;
17052;SDS011;8643;48.824;11.422;2022-07-29T00:55:40;4.75;;;3.63;;
17052;SDS011;8643;48.824;11.422;2022-07-29T00:58:09;6.43;;;4.00;;
17052;SDS011;8643;48.824;11.422;2022-07-29T01:00:41;5.68;;;4.10;;
17052;SDS011;8643;48.824;11.422;2022-07-29T01:03:11;7.82;;;4.03;;
17052;SDS011;8643;48.824;11.422;2022-07-29T01:05:39;4.90;;;3.90;;
17052;SDS011;8643;48.824;11.422;2022-07-29T01:08:16;5.75;;;4.05;;
17052;SDS011;8643;48.824;11.422;2022-07-29T01:10:47;5.18;;;3.75;;
17052;SDS011;8643;48.824;11.422;2022-07-29T01:13:16;5.88;;;4.10;;
17052;SDS011;8643;48.824;11.422;2022-07-29T01:15:47;4.43;;;3.78;;
17052;SDS011;8643;48.824;11.422;2022-07-29T01:18:25;4.45;;;3.72;;
17052;SDS011;8643;48.824;11.422;2022-07-29T01:24:14;4.43;;;4.03;;
17052;SDS011;8643;48.824;11.422;2022-07-29T01:27:04;4.63;;;4.03;;
17052;SDS011;8643;48.824;11.422;2022-07-29T01:30:01;4.88;;;3.85;;
17052;SDS011;8643;48.824;11.422;2022-07-29T01:32:35;5.63;;;4.10;;
17052;SDS011;8643;48.824;11.422;2022-07-29T01:35:07;4.35;;;3.90;;
17052;SDS011;8643;48.824;11.422;2022-07-29T01:37:45;5.63;;;4.00;;
17052;SDS011;8643;48.824;11.422;2022-07-29T01:40:19;5.90;;;3.88;;
17052;SDS011;8643;48.824;11.422;2022-07-29T01:42:55;4.60;;;4.05;;
17052;SDS011;8643;48.824;11.422;2022-07-29T01:45:33;7.03;;;3.90;;
17052;SDS011;8643;48.824;11.422;2022-07-29T01:48:12;4.82;;;4.00;;
17052;SDS011;8643;48.824;11.422;2022-07-29T01:50:46;5.25;;;4.22;;
17052;SDS011;8643;48.824;11.422;2022-07-29T01:53:21;4.68;;;4.10;;
17052;SDS011;8643;48.824;11.422;2022-07-29T01:56:03;6.20;;;4.15;;
17052;SDS011;8643;48.824;11.422;2022-07-29T01:58:36;6.57;;;3.80;;
17052;SDS011;8643;48.824;11.422;2022-07-29T02:01:11;4.78;;;4.10;;
17052;SDS011;8643;48.824;11.422;2022-07-29T02:03:43;5.07;;;3.92;;
17052;SDS011;8643;48.824;11.422;2022-07-29T02:06:14;7.90;;;4.40;;
17052;SDS011;8643;48.824;11.422;2022-07-29T02:08:48;6.97;;;3.90;;
17052;SDS011;8643;48.824;11.422;2022-07-29T02:11:20;5.07;;;4.03;;
17052;SDS011;8643;48.824;11.422;2022-07-29T02:13:48;7.80;;;4.00;;
17052;SDS011;8643;48.824;11.422;2022-07-29T02:16:22;4.50;;;3.90;;
17052;SDS011;8643;48.824;11.422;2022-07-29T02:18:56;5.60;;;4.28;;
17052;SDS011;8643;48.824;11.422;2022-07-29T02:21:28;9.60;;;4.68;;
17052;SDS011;8643;48.824;11.422;2022-07-29T02:23:59;6.72;;;4.38;;
17052;SDS011;8643;48.824;11.422;2022-07-29T02:26:30;7.28;;;3.92;;
17052;SDS011;8643;48.824;11.422;2022-07-29T02:29:01;5.93;;;4.47;;
17052;SDS011;8643;48.824;11.422;2022-07-29T02:31:32;6.10;;;3.83;;
17052;SDS011;8643;48.824;11.422;2022-07-29T02:34:03;6.68;;;4.40;;
17052;SDS011;8643;48.824;11.422;2022-07-29T02:36:36;7.07;;;4.13;;
17052;SDS011;8643;48.824;11.422;2022-07-29T02:39:06;7.07;;;4.30;;
17052;SDS011;8643;48.824;11.422;2022-07-29T02:41:40;8.70;;;4.50;;
17052;SDS011;8643;48.824;11.422;2022-07-29T02:44:12;6.93;;;4.45;;
17052;SDS011;8643;48.824;11.422;2022-07-29T02:46:48;6.80;;;4.75;;
17052;SDS011;8643;48.824;11.422;2022-07-29T02:49:29;6.75;;;4.63;;
17052;SDS011;8643;48.824;11.422;2022-07-29T02:52:04;5.22;;;4.43;;
17052;SDS011;8643;48.824;11.422;2022-07-29T02:54:41;5.63;;;4.57;;
17052;SDS011;8643;48.824;11.422;2022-07-29T02:57:18;5.35;;;4.70;;
17052;SDS011;8643;48.824;11.422;2022-07-29T02:59:51;9.85;;;4.97;;
17052;SDS011;8643;48.824;11.422;2022-07-29T03:02:26;5.70;;;4.28;;
17052;SDS011;8643;48.824;11.422;2022-07-29T03:04:58;5.50;;;4.63;;
17052;SDS011;8643;48.824;11.422;2022-07-29T03:07:30;6.95;;;4.75;;
17052;SDS011;8643;48.824;11.422;2022-07-29T03:10:02;6.88;;;4.90;;
17052;SDS011;8643;48.824;11.422;2022-07-29T03:12:36;6.65;;;4.78;;
17052;SDS011;8643;48.824;11.422;2022-07-29T03:15:06;7.82;;;5.45;;
17052;SDS011;8643;48.824;11.422;2022-07-29T03:17:38;9.60;;;5.03;;
17052;SDS011;8643;48.824;11.422;2022-07-29T03:20:08;6.45;;;4.95;;
17052;SDS011;8643;48.824;11.422;2022-07-29T03:22:39;6.90;;;4.95;;
17052;SDS011;8643;48.824;11.422;2022-07-29T03:25:10;8.60;;;5.30;;
17052;SDS011;8643;48.824;11.422;2022-07-29T03:27:40;7.22;;;5.30;;
17052;SDS011;8643;48.824;11.422;2022-07-29T03:30:09;7.95;;;5.63;;
17052;SDS011;8643;48.824;11.422;2022-07-29T03:32:49;7.32;;;6.10;;
17052;SDS011;8643;48.824;11.422;2022-07-29T03:35:18;8.65;;;5.80;;
17052;SDS011;8643;48.824;11.422;2022-07-29T03:37:47;10.18;;;6.60;;
17052;SDS011;8643;48.824;11.422;2022-07-29T03:40:16;11.55;;;7.18;;
17052;SDS011;8643;48.824;11.422;2022-07-29T03:42:52;8.13;;;7.00;;
17052;SDS011;8643;48.824;11.422;2022-07-29T03:45:23;8.15;;;6.72;;
17052;SDS011;8643;48.824;11.422;2022-07-29T03:47:57;10.50;;;6.90;;
17052;SDS011;8643;48.824;11.422;2022-07-29T03:50:29;10.15;;;7.22;;
17052;SDS011;8643;48.824;11.422;2022-07-29T03:53:00;8.77;;;7.32;;
17052;SDS011;8643;48.824;11.422;2022-07-29T03:55:31;10.77;;;7.30;;
17052;SDS011;8643;48.824;11.422;2022-07-29T03:58:07;9.23;;;6.85;;
17052;SDS011;8643;48.824;11.422;2022-07-29T04:00:38;7.63;;;6.90;;
17052;SDS011;8643;48.824;11.422;2022-07-29T04:03:10;9.73;;;7.20;;
17052;SDS011;8643;48.824;11.422;2022-07-29T04:05:41;9.95;;;7.35;;
17052;SDS011;8643;48.824;11.422;2022-07-29T04:08:09;10.02;;;7.75;;
17052;SDS011;8643;48.824;11.422;2022-07-29T04:10:37;9.55;;;6.97;;
17052;SDS011;8643;48.824;11.422;2022-07-29T04:13:06;10.43;;;7.35;;
17052;SDS011;8643;48.824;11.422;2022-07-29T04:15:34;9.98;;;7.13;;
17052;SDS011;8643;48.824;11.422;2022-07-29T04:18:02;6.75;;;6.05;;
17052;SDS011;8643;48.824;11.422;2022-07-29T04:20:33;8.40;;;6.88;;
17052;SDS011;8643;48.824;11.422;2022-07-29T04:23:01;7.07;;;6.35;;
17052;SDS011;8643;48.824;11.422;2022-07-29T04:25:30;7.25;;;6.00;;
17052;SDS011;8643;48.824;11.422;2022-07-29T04:27:58;7.30;;;6.00;;
17052;SDS011;8643;48.824;11.422;2022-07-29T04:30:30;7.05;;;6.03;;
17052;SDS011;8643;48.824;11.422;2022-07-29T04:33:00;8.82;;;6.00;;
17052;SDS011;8643;48.824;11.422;2022-07-29T04:35:30;6.90;;;6.15;;
17052;SDS011;8643;48.824;11.422;2022-07-29T04:38:15;7.53;;;6.70;;
17052;SDS011;8643;48.824;11.422;2022-07-29T04:40:44;8.55;;;6.10;;
17052;SDS011;8643;48.824;11.422;2022-07-29T04:43:15;9.73;;;6.60;;
17052;SDS011;8643;48.824;11.422;2022-07-29T04:45:48;7.88;;;6.35;;
17052;SDS011;8643;48.824;11.422;2022-07-29T04:48:17;8.50;;;6.38;;
17052;SDS011;8643;48.824;11.422;2022-07-29T04:50:53;9.90;;;6.45;;
17052;SDS011;8643;48.824;11.422;2022-07-29T04:53:21;6.65;;;5.70;;
17052;SDS011;8643;48.824;11.422;2022-07-29T04:55:50;7.05;;;6.30;;
17052;SDS011;8643;48.824;11.422;2022-07-29T04:58:18;6.90;;;6.03;;
17052;SDS011;8643;48.824;11.422;2022-07-29T05:00:49;6.47;;;5.88;;
17052;SDS011;8643;48.824;11.422;2022-07-29T05:03:18;6.60;;;5.80;;
17052;SDS011;8643;48.824;11.422;2022-07-29T05:05:46;8.27;;;5.72;;
17052;SDS011;8643;48.824;11.422;2022-07-29T05:08:16;9.75;;;6.47;;
17052;SDS011;8643;48.824;11.422;2022-07-29T05:10:44;8.45;;;6.20;;
17052;SDS011;8643;48.824;11.422;2022-07-29T05:13:13;7.95;;;6.43;;
17052;SDS011;8643;48.824;11.422;2022-07-29T05:15:42;7.43;;;6.63;;
17052;SDS011;8643;48.824;11.422;2022-07-29T05:18:10;9.77;;;6.20;;
17052;SDS011;8643;48.824;11.422;2022-07-29T05:20:40;8.77;;;6.03;;
17052;SDS011;8643;48.824;11.422;2022-07-29T05:23:09;9.00;;;6.20;;
17052;SDS011;8643;48.824;11.422;2022-07-29T05:25:40;7.72;;;6.90;;
17052;SDS011;8643;48.824;11.422;2022-07-29T05:28:10;7.05;;;6.25;;
17052;SDS011;8643;48.824;11.422;2022-07-29T05:30:38;9.45;;;5.90;;
17052;SDS011;8643;48.824;11.422;2022-07-29T05:33:08;7.90;;;5.80;;
17052;SDS011;8643;48.824;11.422;2022-07-29T05:35:56;7.75;;;6.25;;
17052;SDS011;8643;48.824;11.422;2022-07-29T05:38:26;8.20;;;6.32;;
17052;SDS011;8643;48.824;11.422;2022-07-29T05:40:57;10.23;;;6.10;;
17052;SDS011;8643;48.824;11.422;2022-07-29T05:43:26;8.02;;;6.25;;
17052;SDS011;8643;48.824;11.422;2022-07-29T05:45:56;11.77;;;6.05;;
17052;SDS011;8643;48.824;11.422;2022-07-29T05:48:24;6.93;;;5.63;;
17052;SDS011;8643;48.824;11.422;2022-07-29T05:50:53;6.10;;;5.00;;
17052;SDS011;8643;48.824;11.422;2022-07-29T05:53:22;7.28;;;5.07;;
17052;SDS011;8643;48.824;11.422;2022-07-29T05:55:50;10.07;;;5.55;;
17052;SDS011;8643;48.824;11.422;2022-07-29T05:58:20;6.10;;;4.78;;
17052;SDS011;8643;48.824;11.422;2022-07-29T06:00:48;6.75;;;5.40;;
17052;SDS011;8643;48.824;11.422;2022-07-29T06:03:17;6.03;;;5.28;;
17052;SDS011;8643;48.824;11.422;2022-07-29T06:05:45;6.22;;;5.63;;
17052;SDS011;8643;48.824;11.422;2022-07-29T06:08:13;6.60;;;5.63;;
17052;SDS011;8643;48.824;11.422;2022-07-29T06:10:42;7.47;;;5.47;;
17052;SDS011;8643;48.824;11.422;2022-07-29T06:13:11;8.98;;;5.75;;
17052;SDS011;8643;48.824;11.422;2022-07-29T06:15:43;11.13;;;5.95;;
17052;SDS011;8643;48.824;11.422;2022-07-29T06:18:11;7.55;;;5.53;;
17052;SDS011;8643;48.824;11.422;2022-07-29T06:20:40;6.28;;;5.68;;
17052;SDS011;8643;48.824;11.422;2022-07-29T06:23:08;6.53;;;5.63;;
17052;SDS011;8643;48.824;11.422;2022-07-29T06:25:37;7.43;;;5.93;;
17052;SDS011;8643;48.824;11.422;2022-07-29T06:28:07;9.02;;;5.78;;
17052;SDS011;8643;48.824;11.422;2022-07-29T06:30:35;8.20;;;5.35;;
17052;SDS011;8643;48.824;11.422;2022-07-29T06:33:05;8.20;;;5.88;;
17052;SDS011;8643;48.824;11.422;2022-07-29T06:35:33;5.72;;;5.07;;
17052;SDS011;8643;48.824;11.422;2022-07-29T06:38:07;5.97;;;5.00;;
17052;SDS011;8643;48.824;11.422;2022-07-29T06:40:56;6.45;;;4.60;;
17052;SDS011;8643;48.824;11.422;2022-07-29T06:43:30;5.90;;;4.38;;
17052;SDS011;8643;48.824;11.422;2022-07-29T06:46:17;10.00;;;4.47;;
17052;SDS011;8643;48.824;11.422;2022-07-29T06:48:49;5.80;;;4.50;;
17052;SDS011;8643;48.824;11.422;2022-07-29T06:51:19;5.43;;;4.20;;
17052;SDS011;8643;48.824;11.422;2022-07-29T06:53:49;7.53;;;4.47;;
17052;SDS011;8643;48.824;11.422;2022-07-29T06:56:28;5.45;;;4.53;;
17052;SDS011;8643;48.824;11.422;2022-07-29T06:59:05;5.88;;;4.18;;
17052;SDS011;8643;48.824;11.422;2022-07-29T07:01:35;5.93;;;4.10;;
17052;SDS011;8643;48.824;11.422;2022-07-29T07:04:06;6.65;;;3.70;;
17052;SDS011;8643;48.824;11.422;2022-07-29T07:06:36;5.05;;;4.43;;
17052;SDS011;8643;48.824;11.422;2022-07-29T07:09:05;9.43;;;3.90;;
17052;SDS011;8643;48.824;11.422;2022-07-29T07:11:33;7.20;;;4.40;;
17052;SDS011;8643;48.824;11.422;2022-07-29T07:14:02;8.20;;;4.00;;
17052;SDS011;8643;48.824;11.422;2022-07-29T07:16:30;5.00;;;3.80;;
17052;SDS011;8643;48.824;11.422;2022-07-29T07:18:59;5.13;;;3.50;;
17052;SDS011;8643;48.824;11.422;2022-07-29T07:21:29;4.90;;;3.83;;
17052;SDS011;8643;48.824;11.422;2022-07-29T07:23:57;5.97;;;3.97;;
17052;SDS011;8643;48.824;11.422;2022-07-29T07:26:27;4.53;;;3.55;;
17052;SDS011;8643;48.824;11.422;2022-07-29T07:28:55;5.10;;;3.83;;
17052;SDS011;8643;48.824;11.422;2022-07-29T07:31:24;7.60;;;3.78;;
17052;SDS011;8643;48.824;11.422;2022-07-29T07:33:53;5.82;;;3.85;;
17052;SDS011;8643;48.824;11.422;2022-07-29T07:36:22;4.68;;;3.63;;
17052;SDS011;8643;48.824;11.422;2022-07-29T07:38:52;4.35;;;3.38;;
17052;SDS011;8643;48.824;11.422;2022-07-29T07:41:20;6.30;;;3.70;;
17052;SDS011;8643;48.824;11.422;2022-07-29T07:43:49;4.10;;;3.50;;
17052;SDS011;8643;48.824;11.422;2022-07-29T07:46:17;5.45;;;3.80;;
17052;SDS011;8643;48.824;11.422;2022-07-29T07:48:46;3.95;;;3.00;;
17052;SDS011;8643;48.824;11.422;2022-07-29T07:51:14;4.00;;;3.58;;
17052;SDS011;8643;48.824;11.422;2022-07-29T07:53:42;5.40;;;3.53;;
17052;SDS011;8643;48.824;11.422;2022-07-29T07:56:12;5.15;;;3.60;;
17052;SDS011;8643;48.824;11.422;2022-07-29T07:58:41;4.38;;;3.20;;
17052;SDS011;8643;48.824;11.422;2022-07-29T08:01:09;5.32;;;3.40;;
17052;SDS011;8643;48.824;11.422;2022-07-29T08:03:38;7.93;;;3.50;;
17052;SDS011;8643;48.824;11.422;2022-07-29T08:06:06;5.72;;;3.10;;
17052;SDS011;8643;48.824;11.422;2022-07-29T08:08:35;5.18;;;3.25;;
17052;SDS011;8643;48.824;11.422;2022-07-29T08:11:03;4.32;;;3.10;;
17052;SDS011;8643;48.824;11.422;2022-07-29T08:13:36;3.15;;;2.85;;
17052;SDS011;8643;48.824;11.422;2022-07-29T08:16:06;4.82;;;2.88;;
17052;SDS011;8643;48.824;11.422;2022-07-29T08:18:42;4.10;;;3.00;;
17052;SDS011;8643;48.824;11.422;2022-07-29T08:21:13;3.50;;;2.53;;
17052;SDS011;8643;48.824;11.422;2022-07-29T08:23:43;3.67;;;2.80;;
17052;SDS011;8643;48.824;11.422;2022-07-29T08:26:25;3.85;;;2.88;;
17052;SDS011;8643;48.824;11.422;2022-07-29T08:28:54;3.80;;;2.90;;
17052;SDS011;8643;48.824;11.422;2022-07-29T08:31:23;4.55;;;3.20;;
17052;SDS011;8643;48.824;11.422;2022-07-29T08:33:51;5.95;;;3.10;;
17052;SDS011;8643;48.824;11.422;2022-07-29T08:36:19;3.53;;;2.95;;
17052;SDS011;8643;48.824;11.422;2022-07-29T08:38:48;6.40;;;2.90;;
17052;SDS011;8643;48.824;11.422;2022-07-29T08:41:17;5.57;;;3.45;;
17052;SDS011;8643;48.824;11.422;2022-07-29T08:43:46;5.80;;;3.00;;
17052;SDS011;8643;48.824;11.422;2022-07-29T08:46:17;3.47;;;2.85;;
17052;SDS011;8643;48.824;11.422;2022-07-29T08:48:47;4.32;;;2.92;;
17052;SDS011;8643;48.824;11.422;2022-07-29T08:51:17;3.90;;;2.80;;
17052;SDS011;8643;48.824;11.422;2022-07-29T08:53:47;3.25;;;2.80;;
17052;SDS011;8643;48.824;11.422;2022-07-29T08:56:18;3.10;;;2.45;;
17052;SDS011;8643;48.824;11.422;2022-07-29T08:58:48;3.28;;;2.70;;
17052;SDS011;8643;48.824;11.422;2022-07-29T09:01:22;4.38;;;2.83;;
17052;SDS011;8643;48.824;11.422;2022-07-29T09:04:03;3.70;;;2.60;;
17052;SDS011;8643;48.824;11.422;2022-07-29T09:06:37;4.68;;;2.72;;
17052;SDS011;8643;48.824;11.422;2022-07-29T09:09:10;2.97;;;2.38;;
17052;SDS011;8643;48.824;11.422;2022-07-29T09:11:41;3.85;;;2.40;;
17052;SDS011;8643;48.824;11.422;2022-07-29T09:14:11;4.25;;;2.55;;
17052;SDS011;8643;48.824;11.422;2022-07-29T09:16:49;4.97;;;2.72;;
17052;SDS011;8643;48.824;11.422;2022-07-29T09:19:24;3.65;;;3.05;;
17052;SDS011;8643;48.824;11.422;2022-07-29T09:21:55;3.28;;;2.38;;
17052;SDS011;8643;48.824;11.422;2022-07-29T09:24:26;5.70;;;2.50;;
17052;SDS011;8643;48.824;11.422;2022-07-29T09:27:08;2.83;;;2.40;;
17052;SDS011;8643;48.824;11.422;2022-07-29T09:29:55;3.97;;;2.72;;
17052;SDS011;8643;48.824;11.422;2022-07-29T09:32:27;4.95;;;2.50;;
17052;SDS011;8643;48.824;11.422;2022-07-29T09:35:14;2.97;;;2.45;;
17052;SDS011;8643;48.824;11.422;2022-07-29T09:37:45;3.13;;;2.55;;
17052;SDS011;8643;48.824;11.422;2022-07-29T09:40:15;4.88;;;2.83;;
17052;SDS011;8643;48.824;11.422;2022-07-29T09:42:46;3.08;;;2.55;;
17052;SDS011;8643;48.824;11.422;2022-07-29T09:45:25;2.20;;;2.00;;
17052;SDS011;8643;48.824;11.422;2022-07-29T09:47:58;5.38;;;2.40;;
17052;SDS011;8643;48.824;11.422;2022-07-29T09:50:40;4.18;;;2.50;;
17052;SDS011;8643;48.824;11.422;2022-07-29T09:53:11;3.88;;;2.33;;
17052;SDS011;8643;48.824;11.422;2022-07-29T09:55:46;4.22;;;2.60;;
17052;SDS011;8643;48.824;11.422;2022-07-29T09:58:17;7.35;;;2.53;;
17052;SDS011;8643;48.824;11.422;2022-07-29T10:00:49;2.67;;;2.42;;
17052;SDS011;8643;48.824;11.422;2022-07-29T10:03:22;4.43;;;2.40;;
17052;SDS011;8643;48.824;11.422;2022-07-29T10:06:04;8.20;;;2.50;;
17052;SDS011;8643;48.824;11.422;2022-07-29T10:08:35;4.03;;;2.35;;
17052;SDS011;8643;48.824;11.422;2022-07-29T10:11:11;4.95;;;2.30;;
17052;SDS011;8643;48.824;11.422;2022-07-29T10:13:41;4.18;;;2.55;;
17052;SDS011;8643;48.824;11.422;2022-07-29T10:16:11;2.88;;;2.30;;
17052;SDS011;8643;48.824;11.422;2022-07-29T10:18:43;3.22;;;2.58;;
17052;SDS011;8643;48.824;11.422;2022-07-29T10:21:13;2.88;;;2.30;;
17052;SDS011;8643;48.824;11.422;2022-07-29T10:24:01;4.72;;;2.50;;
17052;SDS011;8643;48.824;11.422;2022-07-29T10:26:40;3.88;;;2.80;;
17052;SDS011;8643;48.824;11.422;2022-07-29T10:29:10;4.38;;;2.47;;
17052;SDS011;8643;48.824;11.422;2022-07-29T10:31:41;3.70;;;2.60;;
17052;SDS011;8643;48.824;11.422;2022-07-29T10:34:27;3.25;;;2.60;;
17052;SDS011;8643;48.824;11.422;2022-07-29T10:37:19;2.85;;;2.28;;
17052;SDS011;8643;48.824;11.422;2022-07-29T10:40:04;5.45;;;2.25;;
17052;SDS011;8643;48.824;11.422;2022-07-29T10:43:03;4.10;;;2.67;;
17052;SDS011;8643;48.824;11.422;2022-07-29T10:45:45;4.43;;;2.40;;
17052;SDS011;8643;48.824;11.422;2022-07-29T10:48:23;3.50;;;2.30;;
17052;SDS011;8643;48.824;11.422;2022-07-29T10:50:53;3.08;;;2.42;;
17052;SDS011;8643;48.824;11.422;2022-07-29T10:53:25;5.38;;;2.40;;
17052;SDS011;8643;48.824;11.422;2022-07-29T10:56:22;3.30;;;2.30;;
17052;SDS011;8643;48.824;11.422;2022-07-29T11:02:01;3.50;;;2.33;;
17052;SDS011;8643;48.824;11.422;2022-07-29T11:05:08;4.22;;;2.40;;
17052;SDS011;8643;48.824;11.422;2022-07-29T11:14:03;4.80;;;2.40;;
17052;SDS011;8643;48.824;11.422;2022-07-29T11:19:32;5.68;;;2.67;;
17052;SDS011;8643;48.824;11.422;2022-07-29T11:22:07;5.07;;;2.50;;
17052;SDS011;8643;48.824;11.422;2022-07-29T11:24:43;5.25;;;2.60;;
17052;SDS011;8643;48.824;11.422;2022-07-29T11:27:35;3.50;;;2.67;;
17052;SDS011;8643;48.824;11.422;2022-07-29T11:30:06;4.65;;;2.55;;
17052;SDS011;8643;48.824;11.422;2022-07-29T11:32:37;5.57;;;2.47;;
17052;SDS011;8643;48.824;11.422;2022-07-29T11:35:11;2.95;;;2.50;;
17052;SDS011;8643;48.824;11.422;2022-07-29T11:37:44;3.67;;;2.40;;
17052;SDS011;8643;48.824;11.422;2022-07-29T11:40:24;3.53;;;2.40;;
17052;SDS011;8643;48.824;11.422;2022-07-29T11:42:52;4.20;;;2.60;;
17052;SDS011;8643;48.824;11.422;2022-07-29T11:45:22;2.53;;;2.20;;
17052;SDS011;8643;48.824;11.422;2022-07-29T11:48:14;4.65;;;2.45;;
17052;SDS011;8643;48.824;11.422;2022-07-29T11:50:58;2.83;;;2.20;;
17052;SDS011;8643;48.824;11.422;2022-07-29T11:53:47;3.17;;;2.38;;
17052;SDS011;8643;48.824;11.422;2022-07-29T11:56:19;2.90;;;2.33;;
17052;SDS011;8643;48.824;11.422;2022-07-29T11:58:51;2.97;;;2.10;;
17052;SDS011;8643;48.824;11.422;2022-07-29T12:01:33;3.35;;;2.35;;
17052;SDS011;8643;48.824;11.422;2022-07-29T12:04:03;3.95;;;1.98;;
17052;SDS011;8643;48.824;11.422;2022-07-29T12:06:33;2.78;;;1.95;;
17052;SDS011;8643;48.824;11.422;2022-07-29T12:09:06;3.60;;;2.08;;
17052;SDS011;8643;48.824;11.422;2022-07-29T12:11:41;2.10;;;1.90;;
17052;SDS011;8643;48.824;11.422;2022-07-29T12:14:25;3.47;;;1.92;;
17052;SDS011;8643;48.824;11.422;2022-07-29T12:16:54;3.05;;;1.95;;
17052;SDS011;8643;48.824;11.422;2022-07-29T12:19:23;2.38;;;1.77;;
17052;SDS011;8643;48.824;11.422;2022-07-29T12:21:53;3.95;;;1.70;;
17052;SDS011;8643;48.824;11.422;2022-07-29T12:24:27;1.90;;;1.80;;
17052;SDS011;8643;48.824;11.422;2022-07-29T12:27:16;1.95;;;1.73;;
17052;SDS011;8643;48.824;11.422;2022-07-29T12:29:56;1.80;;;1.63;;
17052;SDS011;8643;48.824;11.422;2022-07-29T12:32:30;3.53;;;1.65;;
17052;SDS011;8643;48.824;11.422;2022-07-29T12:35:02;2.17;;;1.70;;
17052;SDS011;8643;48.824;11.422;2022-07-29T12:37:34;3.15;;;2.05;;
17052;SDS011;8643;48.824;11.422;2022-07-29T12:40:07;3.13;;;2.25;;
17052;SDS011;8643;48.824;11.422;2022-07-29T12:42:39;3.22;;;2.38;;
17052;SDS011;8643;48.824;11.422;2022-07-29T12:45:07;2.30;;;2.10;;
17052;SDS011;8643;48.824;11.422;2022-07-29T12:47:50;3.05;;;2.17;;
17052;SDS011;8643;48.824;11.422;2022-07-29T12:50:19;2.72;;;2.30;;
17052;SDS011;8643;48.824;11.422;2022-07-29T12:52:51;2.90;;;2.45;;
17052;SDS011;8643;48.824;11.422;2022-07-29T12:55:39;2.50;;;2.30;;
17052;SDS011;8643;48.824;11.422;2022-07-29T12:58:11;4.00;;;2.78;;
17052;SDS011;8643;48.824;11.422;2022-07-29T13:00:40;4.28;;;2.63;;
17052;SDS011;8643;48.824;11.422;2022-07-29T13:03:08;3.67;;;2.80;;
17052;SDS011;8643;48.824;11.422;2022-07-29T13:05:41;5.65;;;2.90;;
17052;SDS011;8643;48.824;11.422;2022-07-29T13:08:16;3.25;;;2.90;;
17052;SDS011;8643;48.824;11.422;2022-07-29T13:10:48;4.88;;;2.97;;
17052;SDS011;8643;48.824;11.422;2022-07-29T13:13:17;5.00;;;3.03;;
17052;SDS011;8643;48.824;11.422;2022-07-29T13:15:46;5.07;;;3.50;;
17052;SDS011;8643;48.824;11.422;2022-07-29T13:18:34;7.00;;;3.67;;
17052;SDS011;8643;48.824;11.422;2022-07-29T13:21:10;7.07;;;3.60;;
17052;SDS011;8643;48.824;11.422;2022-07-29T13:23:40;4.65;;;3.22;;
17052;SDS011;8643;48.824;11.422;2022-07-29T13:26:10;4.78;;;3.13;;
17052;SDS011;8643;48.824;11.422;2022-07-29T13:28:40;3.88;;;3.30;;
17052;SDS011;8643;48.824;11.422;2022-07-29T13:31:10;4.45;;;3.30;;
17052;SDS011;8643;48.824;11.422;2022-07-29T13:33:38;4.22;;;3.40;;
17052;SDS011;8643;48.824;11.422;2022-07-29T13:36:07;6.80;;;3.80;;
17052;SDS011;8643;48.824;11.422;2022-07-29T13:38:36;6.90;;;3.65;;
17052;SDS011;8643;48.824;11.422;2022-07-29T13:41:04;4.75;;;3.38;;
17052;SDS011;8643;48.824;11.422;2022-07-29T13:43:33;6.72;;;3.90;;
17052;SDS011;8643;48.824;11.422;2022-07-29T13:46:02;4.20;;;3.65;;
17052;SDS011;8643;48.824;11.422;2022-07-29T13:48:31;3.78;;;3.28;;
17052;SDS011;8643;48.824;11.422;2022-07-29T13:50:59;9.82;;;3.83;;
17052;SDS011;8643;48.824;11.422;2022-07-29T13:53:28;6.25;;;3.78;;
17052;SDS011;8643;48.824;11.422;2022-07-29T13:55:56;6.75;;;3.88;;
17052;SDS011;8643;48.824;11.422;2022-07-29T13:58:24;5.07;;;3.50;;
17052;SDS011;8643;48.824;11.422;2022-07-29T14:00:53;6.72;;;4.13;;
17052;SDS011;8643;48.824;11.422;2022-07-29T14:03:24;7.07;;;4.10;;
17052;SDS011;8643;48.824;11.422;2022-07-29T14:05:52;4.53;;;3.90;;
17052;SDS011;8643;48.824;11.422;2022-07-29T14:08:22;6.03;;;3.50;;
17052;SDS011;8643;48.824;11.422;2022-07-29T14:10:50;8.32;;;3.58;;
17052;SDS011;8643;48.824;11.422;2022-07-29T14:13:19;5.55;;;3.33;;
17052;SDS011;8643;48.824;11.422;2022-07-29T14:15:51;5.70;;;3.50;;
17052;SDS011;8643;48.824;11.422;2022-07-29T14:18:20;4.70;;;4.05;;
17052;SDS011;8643;48.824;11.422;2022-07-29T14:20:49;4.95;;;3.50;;
17052;SDS011;8643;48.824;11.422;2022-07-29T14:23:18;6.43;;;3.50;;
17052;SDS011;8643;48.824;11.422;2022-07-29T14:25:47;4.82;;;3.63;;
17052;SDS011;8643;48.824;11.422;2022-07-29T14:28:16;8.38;;;4.00;;
17052;SDS011;8643;48.824;11.422;2022-07-29T14:30:45;5.53;;;4.00;;
17052;SDS011;8643;48.824;11.422;2022-07-29T14:33:14;6.13;;;3.67;;
17052;SDS011;8643;48.824;11.422;2022-07-29T14:35:42;7.22;;;4.43;;
17052;SDS011;8643;48.824;11.422;2022-07-29T14:38:12;4.50;;;3.65;;
17052;SDS011;8643;48.824;11.422;2022-07-29T14:40:41;5.47;;;4.03;;
17052;SDS011;8643;48.824;11.422;2022-07-29T14:43:09;6.47;;;3.13;;
17052;SDS011;8643;48.824;11.422;2022-07-29T14:45:38;7.88;;;3.85;;
17052;SDS011;8643;48.824;11.422;2022-07-29T14:48:06;3.83;;;3.53;;
17052;SDS011;8643;48.824;11.422;2022-07-29T14:50:35;5.63;;;3.58;;
17052;SDS011;8643;48.824;11.422;2022-07-29T14:53:03;7.45;;;3.58;;
17052;SDS011;8643;48.824;11.422;2022-07-29T14:55:33;4.28;;;3.50;;
17052;SDS011;8643;48.824;11.422;2022-07-29T14:58:01;4.65;;;3.30;;
17052;SDS011;8643;48.824;11.422;2022-07-29T15:00:37;4.78;;;3.70;;
17052;SDS011;8643;48.824;11.422;2022-07-29T15:03:05;4.35;;;3.40;;
17052;SDS011;8643;48.824;11.422;2022-07-29T15:05:36;5.93;;;3.92;;
17052;SDS011;8643;48.824;11.422;2022-07-29T15:08:05;8.23;;;4.32;;
17052;SDS011;8643;48.824;11.422;2022-07-29T15:10:36;8.65;;;3.75;;
17052;SDS011;8643;48.824;11.422;2022-07-29T15:13:04;6.35;;;4.10;;
17052;SDS011;8643;48.824;11.422;2022-07-29T15:15:33;6.55;;;3.38;;
17052;SDS011;8643;48.824;11.422;2022-07-29T15:18:01;7.55;;;2.97;;
17052;SDS011;8643;48.824;11.422;2022-07-29T15:20:30;4.35;;;2.90;;
17052;SDS011;8643;48.824;11.422;2022-07-29T15:22:58;4.43;;;2.85;;
17052;SDS011;8643;48.824;11.422;2022-07-29T15:25:26;3.63;;;2.85;;
17052;SDS011;8643;48.824;11.422;2022-07-29T15:27:56;4.63;;;2.33;;
17052;SDS011;8643;48.824;11.422;2022-07-29T15:30:29;2.65;;;2.33;;
17052;SDS011;8643;48.824;11.422;2022-07-29T15:33:00;7.05;;;2.70;;